sensor_id;sensor_type;location;lat;lon;timestamp;P1;durP1;ratioP1;P2;durP2;ratioP2
66761;SDS011;53672;48.176;16.338;2023-06-14T00:04:08;9.13;;;4.30;;
66761;SDS011;53672;48.176;16.338;2023-06-14T00:09:08;7.90;;;3.95;;
66761;SDS011;53672;48.176;16.338;2023-06-14T00:14:09;8.00;;;4.30;;
66761;SDS011;53672;48.176;16.338;2023-06-14T00:19:11;8.40;;;4.40;;
66761;SDS011;53672;48.176;16.338;2023-06-14T00:24:11;8.10;;;4.22;;
66761;SDS011;53672;48.176;16.338;2023-06-14T00:29:12;9.13;;;4.33;;
66761;SDS011;53672;48.176;16.338;2023-06-14T00:34:14;8.77;;;4.43;;
66761;SDS011;53672;48.176;16.338;2023-06-14T00:39:14;9.67;;;4.80;;
66761;SDS011;53672;48.176;16.338;2023-06-14T00:44:15;8.18;;;4.70;;
66761;SDS011;53672;48.176;16.338;2023-06-14T00:49:18;10.48;;;4.95;;
66761;SDS011;53672;48.176;16.338;2023-06-14T00:54:19;8.65;;;4.65;;
66761;SDS011;53672;48.176;16.338;2023-06-14T00:59:20;8.57;;;4.63;;
66761;SDS011;53672;48.176;16.338;2023-06-14T01:04:22;10.20;;;4.43;;
66761;SDS011;53672;48.176;16.338;2023-06-14T01:09:25;11.90;;;4.70;;
66761;SDS011;53672;48.176;16.338;2023-06-14T01:14:32;10.35;;;4.55;;
66761;SDS011;53672;48.176;16.338;2023-06-14T01:19:36;8.38;;;4.60;;
66761;SDS011;53672;48.176;16.338;2023-06-14T01:24:38;7.30;;;4.47;;
66761;SDS011;53672;48.176;16.338;2023-06-14T01:29:38;7.95;;;4.10;;
66761;SDS011;53672;48.176;16.338;2023-06-14T01:34:40;8.38;;;4.00;;
66761;SDS011;53672;48.176;16.338;2023-06-14T01:39:42;8.57;;;4.30;;
66761;SDS011;53672;48.176;16.338;2023-06-14T01:44:44;10.67;;;4.60;;
66761;SDS011;53672;48.176;16.338;2023-06-14T01:49:46;8.40;;;4.60;;
66761;SDS011;53672;48.176;16.338;2023-06-14T01:54:48;7.97;;;4.80;;
66761;SDS011;53672;48.176;16.338;2023-06-14T01:59:49;7.22;;;4.22;;
66761;SDS011;53672;48.176;16.338;2023-06-14T02:04:49;8.02;;;4.22;;
66761;SDS011;53672;48.176;16.338;2023-06-14T02:09:51;7.07;;;4.60;;
66761;SDS011;53672;48.176;16.338;2023-06-14T02:14:51;9.50;;;4.27;;
66761;SDS011;53672;48.176;16.338;2023-06-14T02:19:52;8.57;;;4.37;;
66761;SDS011;53672;48.176;16.338;2023-06-14T02:24:54;8.90;;;4.70;;
66761;SDS011;53672;48.176;16.338;2023-06-14T02:29:54;11.75;;;4.75;;
66761;SDS011;53672;48.176;16.338;2023-06-14T02:34:55;13.20;;;4.60;;
66761;SDS011;53672;48.176;16.338;2023-06-14T02:39:57;7.57;;;4.57;;
66761;SDS011;53672;48.176;16.338;2023-06-14T02:44:59;8.75;;;4.53;;
66761;SDS011;53672;48.176;16.338;2023-06-14T02:49:59;8.67;;;4.33;;
66761;SDS011;53672;48.176;16.338;2023-06-14T02:55:01;7.83;;;4.60;;
66761;SDS011;53672;48.176;16.338;2023-06-14T03:00:02;8.18;;;4.35;;
66761;SDS011;53672;48.176;16.338;2023-06-14T03:05:03;7.47;;;4.13;;
66761;SDS011;53672;48.176;16.338;2023-06-14T03:10:06;8.00;;;4.30;;
66761;SDS011;53672;48.176;16.338;2023-06-14T03:15:08;7.95;;;4.28;;
66761;SDS011;53672;48.176;16.338;2023-06-14T03:20:09;9.00;;;4.30;;
66761;SDS011;53672;48.176;16.338;2023-06-14T03:25:11;13.45;;;4.80;;
66761;SDS011;53672;48.176;16.338;2023-06-14T03:30:12;10.13;;;4.40;;
66761;SDS011;53672;48.176;16.338;2023-06-14T03:35:13;9.88;;;4.60;;
66761;SDS011;53672;48.176;16.338;2023-06-14T03:40:17;10.00;;;5.37;;
66761;SDS011;53672;48.176;16.338;2023-06-14T03:45:18;10.30;;;4.55;;
66761;SDS011;53672;48.176;16.338;2023-06-14T03:50:19;7.87;;;4.57;;
66761;SDS011;53672;48.176;16.338;2023-06-14T03:55:21;8.30;;;4.43;;
66761;SDS011;53672;48.176;16.338;2023-06-14T04:00:21;9.77;;;5.20;;
66761;SDS011;53672;48.176;16.338;2023-06-14T04:05:22;10.23;;;4.83;;
66761;SDS011;53672;48.176;16.338;2023-06-14T04:10:23;7.57;;;4.30;;
66761;SDS011;53672;48.176;16.338;2023-06-14T04:15:24;9.55;;;5.10;;
66761;SDS011;53672;48.176;16.338;2023-06-14T04:20:24;15.40;;;4.80;;
66761;SDS011;53672;48.176;16.338;2023-06-14T04:25:26;8.77;;;4.50;;
66761;SDS011;53672;48.176;16.338;2023-06-14T04:30:27;12.35;;;5.40;;
66761;SDS011;53672;48.176;16.338;2023-06-14T04:35:27;9.90;;;5.10;;
66761;SDS011;53672;48.176;16.338;2023-06-14T04:40:29;9.33;;;4.97;;
66761;SDS011;53672;48.176;16.338;2023-06-14T04:45:30;10.97;;;5.53;;
66761;SDS011;53672;48.176;16.338;2023-06-14T04:50:30;9.47;;;4.77;;
66761;SDS011;53672;48.176;16.338;2023-06-14T04:55:32;12.10;;;6.23;;
66761;SDS011;53672;48.176;16.338;2023-06-14T05:00:32;10.88;;;5.28;;
66761;SDS011;53672;48.176;16.338;2023-06-14T05:05:33;10.30;;;5.00;;
66761;SDS011;53672;48.176;16.338;2023-06-14T05:10:35;9.73;;;5.35;;
66761;SDS011;53672;48.176;16.338;2023-06-14T05:15:35;15.50;;;7.87;;
66761;SDS011;53672;48.176;16.338;2023-06-14T05:20:36;12.00;;;6.60;;
66761;SDS011;53672;48.176;16.338;2023-06-14T05:25:38;11.63;;;5.07;;
66761;SDS011;53672;48.176;16.338;2023-06-14T05:30:38;10.02;;;4.47;;
66761;SDS011;53672;48.176;16.338;2023-06-14T05:35:39;9.50;;;4.60;;
66761;SDS011;53672;48.176;16.338;2023-06-14T05:40:41;9.55;;;5.10;;
66761;SDS011;53672;48.176;16.338;2023-06-14T05:45:41;7.88;;;4.82;;
66761;SDS011;53672;48.176;16.338;2023-06-14T05:50:42;9.77;;;4.40;;
66761;SDS011;53672;48.176;16.338;2023-06-14T05:55:44;8.30;;;4.10;;
66761;SDS011;53672;48.176;16.338;2023-06-14T06:00:44;10.70;;;4.88;;
66761;SDS011;53672;48.176;16.338;2023-06-14T06:05:45;7.47;;;4.20;;
66761;SDS011;53672;48.176;16.338;2023-06-14T06:10:47;8.90;;;4.57;;
66761;SDS011;53672;48.176;16.338;2023-06-14T06:15:47;8.88;;;4.05;;
66761;SDS011;53672;48.176;16.338;2023-06-14T06:20:48;6.90;;;4.10;;
66761;SDS011;53672;48.176;16.338;2023-06-14T06:25:50;16.30;;;4.60;;
66761;SDS011;53672;48.176;16.338;2023-06-14T06:30:50;10.40;;;5.05;;
66761;SDS011;53672;48.176;16.338;2023-06-14T06:35:50;8.77;;;4.43;;
66761;SDS011;53672;48.176;16.338;2023-06-14T06:40:52;8.37;;;4.07;;
66761;SDS011;53672;48.176;16.338;2023-06-14T06:45:53;8.57;;;4.57;;
66761;SDS011;53672;48.176;16.338;2023-06-14T06:50:53;6.80;;;3.97;;
66761;SDS011;53672;48.176;16.338;2023-06-14T06:55:55;7.57;;;4.27;;
66761;SDS011;53672;48.176;16.338;2023-06-14T07:00:55;7.67;;;4.23;;
66761;SDS011;53672;48.176;16.338;2023-06-14T07:05:56;9.60;;;4.53;;
66761;SDS011;53672;48.176;16.338;2023-06-14T07:10:58;6.82;;;4.15;;
66761;SDS011;53672;48.176;16.338;2023-06-14T07:15:59;8.43;;;3.80;;
66761;SDS011;53672;48.176;16.338;2023-06-14T07:21:00;6.45;;;3.95;;
66761;SDS011;53672;48.176;16.338;2023-06-14T07:26:02;6.43;;;3.90;;
66761;SDS011;53672;48.176;16.338;2023-06-14T07:31:02;7.25;;;4.40;;
66761;SDS011;53672;48.176;16.338;2023-06-14T07:36:02;8.10;;;3.97;;
66761;SDS011;53672;48.176;16.338;2023-06-14T07:41:04;7.30;;;4.03;;
66761;SDS011;53672;48.176;16.338;2023-06-14T07:46:05;7.40;;;3.87;;
66761;SDS011;53672;48.176;16.338;2023-06-14T07:51:05;6.60;;;3.50;;
66761;SDS011;53672;48.176;16.338;2023-06-14T07:56:07;7.10;;;3.60;;
66761;SDS011;53672;48.176;16.338;2023-06-14T08:01:08;8.57;;;3.97;;
66761;SDS011;53672;48.176;16.338;2023-06-14T08:06:09;8.10;;;3.93;;
66761;SDS011;53672;48.176;16.338;2023-06-14T08:11:11;9.50;;;3.63;;
66761;SDS011;53672;48.176;16.338;2023-06-14T08:16:11;6.55;;;4.35;;
66761;SDS011;53672;48.176;16.338;2023-06-14T08:21:12;6.57;;;3.90;;
66761;SDS011;53672;48.176;16.338;2023-06-14T08:26:14;8.07;;;4.17;;
66761;SDS011;53672;48.176;16.338;2023-06-14T08:31:14;7.10;;;4.20;;
66761;SDS011;53672;48.176;16.338;2023-06-14T08:36:15;9.33;;;4.40;;
66761;SDS011;53672;48.176;16.338;2023-06-14T08:41:20;6.88;;;4.55;;
66761;SDS011;53672;48.176;16.338;2023-06-14T08:46:21;7.00;;;4.10;;
66761;SDS011;53672;48.176;16.338;2023-06-14T08:51:25;7.35;;;3.70;;
66761;SDS011;53672;48.176;16.338;2023-06-14T08:56:27;8.00;;;4.17;;
66761;SDS011;53672;48.176;16.338;2023-06-14T09:01:28;7.15;;;4.05;;
66761;SDS011;53672;48.176;16.338;2023-06-14T09:06:30;8.20;;;4.07;;
66761;SDS011;53672;48.176;16.338;2023-06-14T09:11:32;8.80;;;3.90;;
66761;SDS011;53672;48.176;16.338;2023-06-14T09:16:33;7.95;;;3.65;;
66761;SDS011;53672;48.176;16.338;2023-06-14T09:21:34;6.97;;;3.95;;
66761;SDS011;53672;48.176;16.338;2023-06-14T09:26:36;5.87;;;4.10;;
66761;SDS011;53672;48.176;16.338;2023-06-14T09:31:39;6.47;;;4.40;;
66761;SDS011;53672;48.176;16.338;2023-06-14T09:36:40;9.37;;;4.30;;
66761;SDS011;53672;48.176;16.338;2023-06-14T09:41:43;8.93;;;4.30;;
66761;SDS011;53672;48.176;16.338;2023-06-14T09:46:43;6.28;;;3.97;;
66761;SDS011;53672;48.176;16.338;2023-06-14T09:51:45;7.13;;;4.70;;
66761;SDS011;53672;48.176;16.338;2023-06-14T09:56:48;8.95;;;4.13;;
66761;SDS011;53672;48.176;16.338;2023-06-14T10:01:51;7.70;;;4.25;;
66761;SDS011;53672;48.176;16.338;2023-06-14T10:06:57;7.43;;;4.30;;
66761;SDS011;53672;48.176;16.338;2023-06-14T10:12:01;5.50;;;4.10;;
66761;SDS011;53672;48.176;16.338;2023-06-14T10:17:03;7.30;;;4.50;;
66761;SDS011;53672;48.176;16.338;2023-06-14T10:22:09;8.73;;;4.10;;
66761;SDS011;53672;48.176;16.338;2023-06-14T10:27:14;6.25;;;4.32;;
66761;SDS011;53672;48.176;16.338;2023-06-14T10:32:15;5.30;;;3.83;;
66761;SDS011;53672;48.176;16.338;2023-06-14T10:37:15;5.50;;;4.37;;
66761;SDS011;53672;48.176;16.338;2023-06-14T10:42:17;7.43;;;4.32;;
66761;SDS011;53672;48.176;16.338;2023-06-14T10:47:25;6.23;;;3.97;;
66761;SDS011;53672;48.176;16.338;2023-06-14T10:52:27;5.75;;;3.63;;
66761;SDS011;53672;48.176;16.338;2023-06-14T10:57:30;6.87;;;4.60;;
66761;SDS011;53672;48.176;16.338;2023-06-14T11:02:40;7.70;;;3.63;;
66761;SDS011;53672;48.176;16.338;2023-06-14T11:07:52;7.70;;;4.10;;
66761;SDS011;53672;48.176;16.338;2023-06-14T11:13:00;5.87;;;3.17;;
66761;SDS011;53672;48.176;16.338;2023-06-14T11:18:00;7.10;;;3.28;;
66761;SDS011;53672;48.176;16.338;2023-06-14T11:23:01;6.23;;;3.30;;
66761;SDS011;53672;48.176;16.338;2023-06-14T11:28:04;8.10;;;3.72;;
66761;SDS011;53672;48.176;16.338;2023-06-14T11:33:09;6.95;;;3.95;;
66761;SDS011;53672;48.176;16.338;2023-06-14T11:38:09;8.27;;;3.80;;
66761;SDS011;53672;48.176;16.338;2023-06-14T11:43:11;8.13;;;3.80;;
66761;SDS011;53672;48.176;16.338;2023-06-14T11:48:12;7.07;;;3.70;;
66761;SDS011;53672;48.176;16.338;2023-06-14T11:53:12;6.17;;;4.20;;
66761;SDS011;53672;48.176;16.338;2023-06-14T11:58:15;7.45;;;3.95;;
66761;SDS011;53672;48.176;16.338;2023-06-14T12:03:16;8.53;;;4.00;;
66761;SDS011;53672;48.176;16.338;2023-06-14T12:08:16;7.63;;;3.50;;
66761;SDS011;53672;48.176;16.338;2023-06-14T12:13:18;5.68;;;3.63;;
66761;SDS011;53672;48.176;16.338;2023-06-14T12:18:18;9.50;;;3.80;;
66761;SDS011;53672;48.176;16.338;2023-06-14T12:23:19;7.03;;;3.70;;
66761;SDS011;53672;48.176;16.338;2023-06-14T12:28:21;9.40;;;3.90;;
66761;SDS011;53672;48.176;16.338;2023-06-14T12:33:21;7.53;;;3.73;;
66761;SDS011;53672;48.176;16.338;2023-06-14T12:38:22;6.30;;;3.60;;
66761;SDS011;53672;48.176;16.338;2023-06-14T12:43:24;7.33;;;3.87;;
66761;SDS011;53672;48.176;16.338;2023-06-14T12:48:24;7.55;;;3.78;;
66761;SDS011;53672;48.176;16.338;2023-06-14T12:53:25;8.20;;;3.87;;
66761;SDS011;53672;48.176;16.338;2023-06-14T12:58:27;6.37;;;3.60;;
66761;SDS011;53672;48.176;16.338;2023-06-14T13:03:27;6.70;;;3.60;;
66761;SDS011;53672;48.176;16.338;2023-06-14T13:08:27;10.03;;;3.60;;
66761;SDS011;53672;48.176;16.338;2023-06-14T13:13:29;9.80;;;3.80;;
66761;SDS011;53672;48.176;16.338;2023-06-14T13:18:30;6.97;;;3.58;;
66761;SDS011;53672;48.176;16.338;2023-06-14T13:23:30;8.90;;;3.60;;
66761;SDS011;53672;48.176;16.338;2023-06-14T13:28:32;6.07;;;3.60;;
66761;SDS011;53672;48.176;16.338;2023-06-14T13:33:33;7.03;;;3.72;;
66761;SDS011;53672;48.176;16.338;2023-06-14T13:38:33;6.63;;;3.80;;
66761;SDS011;53672;48.176;16.338;2023-06-14T13:43:35;7.97;;;3.60;;
66761;SDS011;53672;48.176;16.338;2023-06-14T13:48:35;7.77;;;3.60;;
66761;SDS011;53672;48.176;16.338;2023-06-14T13:53:36;8.40;;;3.60;;
66761;SDS011;53672;48.176;16.338;2023-06-14T13:58:38;6.27;;;3.10;;
66761;SDS011;53672;48.176;16.338;2023-06-14T14:03:39;5.78;;;3.38;;
66761;SDS011;53672;48.176;16.338;2023-06-14T14:08:39;6.13;;;3.33;;
66761;SDS011;53672;48.176;16.338;2023-06-14T14:13:41;5.57;;;3.30;;
66761;SDS011;53672;48.176;16.338;2023-06-14T14:18:42;7.88;;;3.22;;
66761;SDS011;53672;48.176;16.338;2023-06-14T14:23:42;7.33;;;3.60;;
66761;SDS011;53672;48.176;16.338;2023-06-14T14:28:44;7.57;;;3.40;;
66761;SDS011;53672;48.176;16.338;2023-06-14T14:33:45;8.15;;;3.83;;
66761;SDS011;53672;48.176;16.338;2023-06-14T14:38:45;6.93;;;3.37;;
66761;SDS011;53672;48.176;16.338;2023-06-14T14:43:47;9.20;;;4.07;;
66761;SDS011;53672;48.176;16.338;2023-06-14T14:48:47;7.07;;;3.85;;
66761;SDS011;53672;48.176;16.338;2023-06-14T14:53:48;6.47;;;3.60;;
66761;SDS011;53672;48.176;16.338;2023-06-14T14:58:50;7.07;;;3.73;;
66761;SDS011;53672;48.176;16.338;2023-06-14T15:03:50;7.17;;;3.90;;
66761;SDS011;53672;48.176;16.338;2023-06-14T15:08:51;7.25;;;3.70;;
66761;SDS011;53672;48.176;16.338;2023-06-14T15:13:53;7.18;;;3.88;;
66761;SDS011;53672;48.176;16.338;2023-06-14T15:18:53;7.72;;;3.72;;
66761;SDS011;53672;48.176;16.338;2023-06-14T15:23:54;8.82;;;4.47;;
66761;SDS011;53672;48.176;16.338;2023-06-14T15:28:55;5.60;;;3.70;;
66761;SDS011;53672;48.176;16.338;2023-06-14T15:33:56;6.80;;;3.50;;
66761;SDS011;53672;48.176;16.338;2023-06-14T15:38:56;8.30;;;4.00;;
66761;SDS011;53672;48.176;16.338;2023-06-14T15:43:58;9.23;;;3.67;;
66761;SDS011;53672;48.176;16.338;2023-06-14T15:48:59;6.50;;;3.70;;
66761;SDS011;53672;48.176;16.338;2023-06-14T15:53:59;6.00;;;3.93;;
66761;SDS011;53672;48.176;16.338;2023-06-14T15:59:01;8.47;;;3.70;;
66761;SDS011;53672;48.176;16.338;2023-06-14T16:04:02;8.70;;;3.47;;
66761;SDS011;53672;48.176;16.338;2023-06-14T16:09:02;6.63;;;3.40;;
66761;SDS011;53672;48.176;16.338;2023-06-14T16:14:04;6.90;;;3.70;;
66761;SDS011;53672;48.176;16.338;2023-06-14T16:19:05;8.32;;;3.80;;
66761;SDS011;53672;48.176;16.338;2023-06-14T16:24:06;5.93;;;3.70;;
66761;SDS011;53672;48.176;16.338;2023-06-14T16:29:08;7.43;;;3.60;;
66761;SDS011;53672;48.176;16.338;2023-06-14T16:34:09;8.67;;;4.33;;
66761;SDS011;53672;48.176;16.338;2023-06-14T16:39:09;7.97;;;4.10;;
66761;SDS011;53672;48.176;16.338;2023-06-14T16:44:11;7.97;;;4.07;;
66761;SDS011;53672;48.176;16.338;2023-06-14T16:49:11;9.77;;;5.10;;
66761;SDS011;53672;48.176;16.338;2023-06-14T16:54:12;8.40;;;4.87;;
66761;SDS011;53672;48.176;16.338;2023-06-14T16:59:14;9.50;;;4.90;;
66761;SDS011;53672;48.176;16.338;2023-06-14T17:04:14;7.85;;;4.22;;
66761;SDS011;53672;48.176;16.338;2023-06-14T17:09:15;9.43;;;4.43;;
66761;SDS011;53672;48.176;16.338;2023-06-14T17:14:16;8.87;;;4.60;;
66761;SDS011;53672;48.176;16.338;2023-06-14T17:19:17;8.10;;;4.40;;
66761;SDS011;53672;48.176;16.338;2023-06-14T17:24:17;7.17;;;4.70;;
66761;SDS011;53672;48.176;16.338;2023-06-14T17:29:19;8.07;;;4.83;;
66761;SDS011;53672;48.176;16.338;2023-06-14T17:34:20;7.80;;;3.92;;
66761;SDS011;53672;48.176;16.338;2023-06-14T17:39:20;8.57;;;4.35;;
66761;SDS011;53672;48.176;16.338;2023-06-14T17:44:22;7.27;;;4.53;;
66761;SDS011;53672;48.176;16.338;2023-06-14T17:49:22;7.33;;;4.40;;
66761;SDS011;53672;48.176;16.338;2023-06-14T17:54:23;7.93;;;4.33;;
66761;SDS011;53672;48.176;16.338;2023-06-14T17:59:25;6.82;;;4.07;;
66761;SDS011;53672;48.176;16.338;2023-06-14T18:04:25;8.53;;;4.00;;
66761;SDS011;53672;48.176;16.338;2023-06-14T18:09:26;6.53;;;4.27;;
66761;SDS011;53672;48.176;16.338;2023-06-14T18:14:28;8.32;;;4.80;;
66761;SDS011;53672;48.176;16.338;2023-06-14T18:19:28;8.20;;;4.40;;
66761;SDS011;53672;48.176;16.338;2023-06-14T18:24:29;8.90;;;4.80;;
66761;SDS011;53672;48.176;16.338;2023-06-14T18:29:31;9.07;;;5.10;;
66761;SDS011;53672;48.176;16.338;2023-06-14T18:34:31;11.02;;;5.03;;
66761;SDS011;53672;48.176;16.338;2023-06-14T18:39:32;8.67;;;5.13;;
66761;SDS011;53672;48.176;16.338;2023-06-14T18:44:34;8.97;;;5.13;;
66761;SDS011;53672;48.176;16.338;2023-06-14T18:49:34;9.60;;;4.82;;
66761;SDS011;53672;48.176;16.338;2023-06-14T18:54:35;9.97;;;4.90;;
66761;SDS011;53672;48.176;16.338;2023-06-14T18:59:37;8.57;;;4.90;;
66761;SDS011;53672;48.176;16.338;2023-06-14T19:04:37;8.10;;;4.93;;
66761;SDS011;53672;48.176;16.338;2023-06-14T19:09:38;8.90;;;4.87;;
66761;SDS011;53672;48.176;16.338;2023-06-14T19:14:40;8.23;;;4.87;;
66761;SDS011;53672;48.176;16.338;2023-06-14T19:19:40;9.02;;;4.85;;
66761;SDS011;53672;48.176;16.338;2023-06-14T19:24:41;9.63;;;4.97;;
66761;SDS011;53672;48.176;16.338;2023-06-14T19:29:43;10.20;;;4.83;;
66761;SDS011;53672;48.176;16.338;2023-06-14T19:34:43;8.85;;;5.30;;
66761;SDS011;53672;48.176;16.338;2023-06-14T19:39:43;9.43;;;5.17;;
66761;SDS011;53672;48.176;16.338;2023-06-14T19:44:45;8.13;;;4.93;;
66761;SDS011;53672;48.176;16.338;2023-06-14T19:49:46;11.68;;;5.57;;
66761;SDS011;53672;48.176;16.338;2023-06-14T19:54:46;9.20;;;5.23;;
66761;SDS011;53672;48.176;16.338;2023-06-14T19:59:48;9.03;;;5.53;;
66761;SDS011;53672;48.176;16.338;2023-06-14T20:04:49;9.17;;;5.50;;
66761;SDS011;53672;48.176;16.338;2023-06-14T20:09:49;10.40;;;6.35;;
66761;SDS011;53672;48.176;16.338;2023-06-14T20:14:51;11.48;;;6.05;;
66761;SDS011;53672;48.176;16.338;2023-06-14T20:19:52;9.23;;;5.30;;
66761;SDS011;53672;48.176;16.338;2023-06-14T20:24:52;10.20;;;6.10;;
66761;SDS011;53672;48.176;16.338;2023-06-14T20:29:54;9.43;;;5.40;;
66761;SDS011;53672;48.176;16.338;2023-06-14T20:34:55;8.93;;;5.28;;
66761;SDS011;53672;48.176;16.338;2023-06-14T20:39:55;9.63;;;5.83;;
66761;SDS011;53672;48.176;16.338;2023-06-14T20:44:58;9.45;;;5.72;;
66761;SDS011;53672;48.176;16.338;2023-06-14T20:49:58;13.80;;;5.57;;
66761;SDS011;53672;48.176;16.338;2023-06-14T20:54:58;8.88;;;5.15;;
66761;SDS011;53672;48.176;16.338;2023-06-14T21:00:00;11.40;;;5.43;;
66761;SDS011;53672;48.176;16.338;2023-06-14T21:05:02;8.93;;;5.10;;
66761;SDS011;53672;48.176;16.338;2023-06-14T21:10:03;10.80;;;5.80;;
66761;SDS011;53672;48.176;16.338;2023-06-14T21:15:06;9.77;;;5.57;;
66761;SDS011;53672;48.176;16.338;2023-06-14T21:20:07;11.35;;;5.32;;
66761;SDS011;53672;48.176;16.338;2023-06-14T21:25:08;9.02;;;4.90;;
66761;SDS011;53672;48.176;16.338;2023-06-14T21:30:14;9.15;;;4.80;;
66761;SDS011;53672;48.176;16.338;2023-06-14T21:35:16;8.52;;;5.03;;
66761;SDS011;53672;48.176;16.338;2023-06-14T21:40:16;10.37;;;4.93;;
66761;SDS011;53672;48.176;16.338;2023-06-14T21:45:18;8.43;;;4.83;;
66761;SDS011;53672;48.176;16.338;2023-06-14T21:50:19;9.18;;;5.22;;
66761;SDS011;53672;48.176;16.338;2023-06-14T21:55:19;9.10;;;5.30;;
66761;SDS011;53672;48.176;16.338;2023-06-14T22:00:21;9.73;;;5.50;;
66761;SDS011;53672;48.176;16.338;2023-06-14T22:05:21;9.95;;;5.13;;
66761;SDS011;53672;48.176;16.338;2023-06-14T22:10:22;8.63;;;4.90;;
66761;SDS011;53672;48.176;16.338;2023-06-14T22:15:24;9.33;;;5.30;;
66761;SDS011;53672;48.176;16.338;2023-06-14T22:20:25;10.18;;;5.10;;
66761;SDS011;53672;48.176;16.338;2023-06-14T22:25:25;9.00;;;5.30;;
66761;SDS011;53672;48.176;16.338;2023-06-14T22:30:27;9.57;;;5.00;;
66761;SDS011;53672;48.176;16.338;2023-06-14T22:35:27;11.85;;;5.57;;
66761;SDS011;53672;48.176;16.338;2023-06-14T22:40:28;9.27;;;5.23;;
66761;SDS011;53672;48.176;16.338;2023-06-14T22:45:30;9.87;;;5.60;;
66761;SDS011;53672;48.176;16.338;2023-06-14T22:50:30;10.25;;;5.38;;
66761;SDS011;53672;48.176;16.338;2023-06-14T22:55:31;9.75;;;4.95;;
66761;SDS011;53672;48.176;16.338;2023-06-14T23:00:33;9.83;;;5.20;;
66761;SDS011;53672;48.176;16.338;2023-06-14T23:05:33;8.90;;;4.90;;
66761;SDS011;53672;48.176;16.338;2023-06-14T23:10:34;8.70;;;5.07;;
66761;SDS011;53672;48.176;16.338;2023-06-14T23:15:36;8.38;;;4.95;;
66761;SDS011;53672;48.176;16.338;2023-06-14T23:20:36;8.83;;;4.80;;
66761;SDS011;53672;48.176;16.338;2023-06-14T23:25:36;9.60;;;5.20;;
66761;SDS011;53672;48.176;16.338;2023-06-14T23:30:38;9.07;;;4.73;;
66761;SDS011;53672;48.176;16.338;2023-06-14T23:35:39;9.55;;;5.22;;
66761;SDS011;53672;48.176;16.338;2023-06-14T23:40:39;8.90;;;4.97;;
66761;SDS011;53672;48.176;16.338;2023-06-14T23:45:41;10.57;;;5.40;;
66761;SDS011;53672;48.176;16.338;2023-06-14T23:50:42;10.95;;;5.97;;
66761;SDS011;53672;48.176;16.338;2023-06-14T23:55:42;10.97;;;5.50;;
